Startpagina
METAR-TAF:

METAR-TAF

Vliegvelden :

Havana, Cuba

José Martí International Airport

breedte: 22-59N, lengte: 082-24W, hoogte: 59 m

Actueel weer

Dit bericht is 39 minuten geleden gemaakt, om 12:55 UTC
Weinig wind
Temperatuur 24°C
Vochtigheid 100%
Druk 1014 hPa
Zicht: 9000 m
Weinig wolken op 2500 ft

METAR: MUHA 191255Z 00000KT 9000 FEW025 24/24 Q1014

Tijdstip: 09:34 (13:34 UTC)

Verwachting

Dit bericht is 2 uur en het 34 minuten geleden gemaakt, om 11:00 UTC
Verwachting geldig van 19 om 12 UTC tot 20 om 12 UTC
Wind 2 kt uit variabele richting
Zicht: 5000 m
Weinig wolken op 2500 ft
Gedeeltelijk bedekt door mist
Wijzigt naar
van 19 om 13 UTC tot 19 om 15 UTC
Wind 8 kt uit het noorden
Zicht: 9000 m
Verspreide wolken op 2500 ft
Wijzigt naar
van 20 om 02 UTC tot 20 om 04 UTC
Wind 3 kt uit variabele richting

TAF: MUHA 191100Z 1912/2012 VRB02KT 5000 PRFG FEW025 BECMG 1913/1915 36008KT 9000 SCT025 BECMG 2002/2004 VRB03KT

Waarnemingen en weersverwachtingen van meer dan 4000 vliegvelden (METAR en TAF).

De beschikbare stations zijn de gele en rode punten op de kaart.

Ga met uw muis naar het station om de naam te zien.

Klik dan om waarnemingen en weersverwachtingen te zien.

kaart wijzigen: klik op de groene knoppen met een zwart kruis om in te zoomen, op de groene knop met een streepje om uit te zoomen of op de groene pijlen voor aangrenzende kaarten.


METAR-TAF: